sensor_id;sensor_type;location;lat;lon;timestamp;P1;durP1;ratioP1;P2;durP2;ratioP2
45358;SDS011;31096;49.292;8.710;2023-03-14T00:03:54;4.67;;;1.60;;
45358;SDS011;31096;49.292;8.710;2023-03-14T00:08:45;3.58;;;1.67;;
45358;SDS011;31096;49.292;8.710;2023-03-14T00:13:36;4.17;;;2.13;;
45358;SDS011;31096;49.292;8.710;2023-03-14T00:18:27;3.40;;;1.67;;
45358;SDS011;31096;49.292;8.710;2023-03-14T00:23:18;3.43;;;2.07;;
45358;SDS011;31096;49.292;8.710;2023-03-14T00:28:09;3.15;;;1.55;;
45358;SDS011;31096;49.292;8.710;2023-03-14T00:33:00;3.00;;;1.20;;
45358;SDS011;31096;49.292;8.710;2023-03-14T00:37:50;4.60;;;2.03;;
45358;SDS011;31096;49.292;8.710;2023-03-14T00:42:41;3.20;;;1.65;;
45358;SDS011;31096;49.292;8.710;2023-03-14T00:47:32;3.60;;;1.63;;
45358;SDS011;31096;49.292;8.710;2023-03-14T00:52:22;4.27;;;1.80;;
45358;SDS011;31096;49.292;8.710;2023-03-14T00:57:13;3.60;;;2.00;;
45358;SDS011;31096;49.292;8.710;2023-03-14T01:02:03;3.50;;;1.80;;
45358;SDS011;31096;49.292;8.710;2023-03-14T01:06:54;4.03;;;2.13;;
45358;SDS011;31096;49.292;8.710;2023-03-14T01:11:45;3.40;;;1.85;;
45358;SDS011;31096;49.292;8.710;2023-03-14T01:16:36;3.70;;;1.93;;
45358;SDS011;31096;49.292;8.710;2023-03-14T01:21:28;3.95;;;2.03;;
45358;SDS011;31096;49.292;8.710;2023-03-14T01:26:22;3.50;;;1.97;;
45358;SDS011;31096;49.292;8.710;2023-03-14T01:31:15;3.70;;;2.05;;
45358;SDS011;31096;49.292;8.710;2023-03-14T01:36:07;3.53;;;1.88;;
45358;SDS011;31096;49.292;8.710;2023-03-14T01:40:59;3.20;;;1.30;;
45358;SDS011;31096;49.292;8.710;2023-03-14T01:50:58;3.45;;;1.80;;
45358;SDS011;31096;49.292;8.710;2023-03-14T01:55:50;4.03;;;1.80;;
45358;SDS011;31096;49.292;8.710;2023-03-14T02:00:42;3.63;;;1.90;;
45358;SDS011;31096;49.292;8.710;2023-03-14T02:05:34;4.10;;;1.70;;
45358;SDS011;31096;49.292;8.710;2023-03-14T02:10:30;4.75;;;1.70;;
45358;SDS011;31096;49.292;8.710;2023-03-14T02:15:25;4.05;;;1.77;;
45358;SDS011;31096;49.292;8.710;2023-03-14T02:25:42;3.88;;;2.08;;
45358;SDS011;31096;49.292;8.710;2023-03-14T02:30:49;4.00;;;1.80;;
45358;SDS011;31096;49.292;8.710;2023-03-14T02:35:42;4.87;;;2.50;;
45358;SDS011;31096;49.292;8.710;2023-03-14T02:40:37;4.88;;;2.13;;
45358;SDS011;31096;49.292;8.710;2023-03-14T02:45:36;3.70;;;2.10;;
45358;SDS011;31096;49.292;8.710;2023-03-14T02:50:30;7.30;;;2.10;;
45358;SDS011;31096;49.292;8.710;2023-03-14T02:55:23;5.00;;;2.03;;
45358;SDS011;31096;49.292;8.710;2023-03-14T03:00:16;4.50;;;2.10;;
45358;SDS011;31096;49.292;8.710;2023-03-14T03:05:07;3.55;;;1.80;;
45358;SDS011;31096;49.292;8.710;2023-03-14T03:09:58;3.57;;;1.73;;
45358;SDS011;31096;49.292;8.710;2023-03-14T03:14:49;3.63;;;1.70;;
45358;SDS011;31096;49.292;8.710;2023-03-14T03:19:49;3.77;;;1.80;;
45358;SDS011;31096;49.292;8.710;2023-03-14T03:24:48;4.22;;;1.40;;
45358;SDS011;31096;49.292;8.710;2023-03-14T03:29:39;4.87;;;2.10;;
45358;SDS011;31096;49.292;8.710;2023-03-14T03:34:30;3.33;;;1.73;;
45358;SDS011;31096;49.292;8.710;2023-03-14T03:39:20;4.22;;;1.77;;
45358;SDS011;31096;49.292;8.710;2023-03-14T03:44:11;4.60;;;2.00;;
45358;SDS011;31096;49.292;8.710;2023-03-14T03:49:02;4.63;;;2.10;;
45358;SDS011;31096;49.292;8.710;2023-03-14T03:53:53;4.97;;;2.30;;
45358;SDS011;31096;49.292;8.710;2023-03-14T03:58:44;4.17;;;1.80;;
45358;SDS011;31096;49.292;8.710;2023-03-14T04:03:35;4.82;;;2.00;;
45358;SDS011;31096;49.292;8.710;2023-03-14T04:08:26;3.70;;;1.90;;
45358;SDS011;31096;49.292;8.710;2023-03-14T04:13:16;6.43;;;1.67;;
45358;SDS011;31096;49.292;8.710;2023-03-14T04:18:07;5.73;;;2.00;;
45358;SDS011;31096;49.292;8.710;2023-03-14T04:22:58;5.45;;;2.10;;
45358;SDS011;31096;49.292;8.710;2023-03-14T04:27:48;3.67;;;1.97;;
45358;SDS011;31096;49.292;8.710;2023-03-14T04:32:39;4.77;;;1.97;;
45358;SDS011;31096;49.292;8.710;2023-03-14T04:37:30;4.28;;;1.90;;
45358;SDS011;31096;49.292;8.710;2023-03-14T04:42:20;5.20;;;1.73;;
45358;SDS011;31096;49.292;8.710;2023-03-14T04:47:11;4.17;;;2.07;;
45358;SDS011;31096;49.292;8.710;2023-03-14T04:52:02;4.35;;;2.13;;
45358;SDS011;31096;49.292;8.710;2023-03-14T04:56:53;9.17;;;2.77;;
45358;SDS011;31096;49.292;8.710;2023-03-14T05:01:43;4.13;;;1.90;;
45358;SDS011;31096;49.292;8.710;2023-03-14T05:06:35;4.43;;;2.07;;
45358;SDS011;31096;49.292;8.710;2023-03-14T05:11:26;6.17;;;2.07;;
45358;SDS011;31096;49.292;8.710;2023-03-14T05:16:16;5.00;;;2.17;;
45358;SDS011;31096;49.292;8.710;2023-03-14T05:21:07;7.93;;;2.40;;
45358;SDS011;31096;49.292;8.710;2023-03-14T05:25:58;5.40;;;2.00;;
45358;SDS011;31096;49.292;8.710;2023-03-14T05:30:48;5.60;;;1.90;;
45358;SDS011;31096;49.292;8.710;2023-03-14T05:35:39;4.07;;;1.83;;
45358;SDS011;31096;49.292;8.710;2023-03-14T05:40:30;3.80;;;2.07;;
45358;SDS011;31096;49.292;8.710;2023-03-14T05:45:20;4.30;;;2.05;;
45358;SDS011;31096;49.292;8.710;2023-03-14T05:50:11;5.43;;;2.20;;
45358;SDS011;31096;49.292;8.710;2023-03-14T05:55:02;3.77;;;1.50;;
45358;SDS011;31096;49.292;8.710;2023-03-14T05:59:53;4.53;;;1.95;;
45358;SDS011;31096;49.292;8.710;2023-03-14T06:04:44;6.37;;;2.50;;
45358;SDS011;31096;49.292;8.710;2023-03-14T06:09:34;3.50;;;2.22;;
45358;SDS011;31096;49.292;8.710;2023-03-14T06:14:25;3.17;;;1.17;;
45358;SDS011;31096;49.292;8.710;2023-03-14T06:19:16;4.97;;;2.00;;
45358;SDS011;31096;49.292;8.710;2023-03-14T06:24:07;4.63;;;2.10;;
45358;SDS011;31096;49.292;8.710;2023-03-14T06:28:57;4.73;;;2.30;;
45358;SDS011;31096;49.292;8.710;2023-03-14T06:33:53;4.57;;;2.10;;
45358;SDS011;31096;49.292;8.710;2023-03-14T06:38:43;5.20;;;1.97;;
45358;SDS011;31096;49.292;8.710;2023-03-14T06:43:34;4.03;;;1.98;;
45358;SDS011;31096;49.292;8.710;2023-03-14T06:48:25;4.10;;;1.70;;
45358;SDS011;31096;49.292;8.710;2023-03-14T06:53:15;4.37;;;2.10;;
45358;SDS011;31096;49.292;8.710;2023-03-14T06:58:06;4.20;;;1.90;;
45358;SDS011;31096;49.292;8.710;2023-03-14T07:02:58;6.43;;;2.20;;
45358;SDS011;31096;49.292;8.710;2023-03-14T07:07:48;3.40;;;1.50;;
45358;SDS011;31096;49.292;8.710;2023-03-14T07:12:39;5.53;;;2.00;;
45358;SDS011;31096;49.292;8.710;2023-03-14T07:17:30;3.80;;;1.87;;
45358;SDS011;31096;49.292;8.710;2023-03-14T07:22:20;4.32;;;2.00;;
45358;SDS011;31096;49.292;8.710;2023-03-14T07:27:11;5.93;;;1.70;;
45358;SDS011;31096;49.292;8.710;2023-03-14T07:32:02;3.93;;;2.13;;
45358;SDS011;31096;49.292;8.710;2023-03-14T07:36:53;4.22;;;1.92;;
45358;SDS011;31096;49.292;8.710;2023-03-14T07:41:43;4.97;;;2.57;;
45358;SDS011;31096;49.292;8.710;2023-03-14T07:46:34;3.63;;;1.70;;
45358;SDS011;31096;49.292;8.710;2023-03-14T07:51:25;4.43;;;1.90;;
45358;SDS011;31096;49.292;8.710;2023-03-14T07:56:15;4.60;;;1.73;;
45358;SDS011;31096;49.292;8.710;2023-03-14T08:01:06;4.18;;;1.77;;
45358;SDS011;31096;49.292;8.710;2023-03-14T08:05:57;5.53;;;1.77;;
45358;SDS011;31096;49.292;8.710;2023-03-14T08:10:48;4.35;;;2.00;;
45358;SDS011;31096;49.292;8.710;2023-03-14T08:15:39;4.33;;;1.60;;
45358;SDS011;31096;49.292;8.710;2023-03-14T08:20:29;3.40;;;1.93;;
45358;SDS011;31096;49.292;8.710;2023-03-14T08:25:20;3.50;;;1.83;;
45358;SDS011;31096;49.292;8.710;2023-03-14T08:30:12;4.07;;;1.50;;
45358;SDS011;31096;49.292;8.710;2023-03-14T08:35:05;3.67;;;1.70;;
45358;SDS011;31096;49.292;8.710;2023-03-14T08:39:57;3.45;;;1.40;;
45358;SDS011;31096;49.292;8.710;2023-03-14T08:44:48;3.30;;;1.33;;
45358;SDS011;31096;49.292;8.710;2023-03-14T08:49:38;7.65;;;1.52;;
45358;SDS011;31096;49.292;8.710;2023-03-14T08:54:30;3.20;;;1.80;;
45358;SDS011;31096;49.292;8.710;2023-03-14T08:59:21;3.85;;;1.83;;
45358;SDS011;31096;49.292;8.710;2023-03-14T09:04:12;3.80;;;1.73;;
45358;SDS011;31096;49.292;8.710;2023-03-14T09:09:03;3.90;;;1.40;;
45358;SDS011;31096;49.292;8.710;2023-03-14T09:13:54;4.65;;;1.83;;
45358;SDS011;31096;49.292;8.710;2023-03-14T09:18:45;3.70;;;1.90;;
45358;SDS011;31096;49.292;8.710;2023-03-14T09:23:35;3.45;;;1.65;;
45358;SDS011;31096;49.292;8.710;2023-03-14T09:28:26;3.30;;;1.70;;
45358;SDS011;31096;49.292;8.710;2023-03-14T09:33:17;3.63;;;1.50;;
45358;SDS011;31096;49.292;8.710;2023-03-14T09:38:08;3.77;;;1.93;;
45358;SDS011;31096;49.292;8.710;2023-03-14T09:43:00;3.10;;;1.33;;
45358;SDS011;31096;49.292;8.710;2023-03-14T09:47:51;3.00;;;1.30;;
45358;SDS011;31096;49.292;8.710;2023-03-14T09:52:45;3.40;;;1.50;;
45358;SDS011;31096;49.292;8.710;2023-03-14T09:57:40;3.07;;;1.50;;
45358;SDS011;31096;49.292;8.710;2023-03-14T10:02:34;4.25;;;1.50;;
45358;SDS011;31096;49.292;8.710;2023-03-14T10:07:30;3.15;;;1.63;;
45358;SDS011;31096;49.292;8.710;2023-03-14T10:12:33;3.07;;;1.30;;
45358;SDS011;31096;49.292;8.710;2023-03-14T10:17:41;5.38;;;1.65;;
45358;SDS011;31096;49.292;8.710;2023-03-14T10:22:34;3.75;;;1.38;;
45358;SDS011;31096;49.292;8.710;2023-03-14T10:27:29;3.43;;;1.43;;
45358;SDS011;31096;49.292;8.710;2023-03-14T10:32:27;3.33;;;1.60;;
45358;SDS011;31096;49.292;8.710;2023-03-14T10:37:32;4.30;;;1.47;;
45358;SDS011;31096;49.292;8.710;2023-03-14T10:42:29;3.10;;;1.67;;
45358;SDS011;31096;49.292;8.710;2023-03-14T10:47:22;3.55;;;1.50;;
45358;SDS011;31096;49.292;8.710;2023-03-14T10:52:17;3.30;;;1.60;;
45358;SDS011;31096;49.292;8.710;2023-03-14T10:57:15;3.33;;;1.30;;
45358;SDS011;31096;49.292;8.710;2023-03-14T11:08:07;6.90;;;1.60;;
45358;SDS011;31096;49.292;8.710;2023-03-14T11:13:21;4.82;;;1.52;;
45358;SDS011;31096;49.292;8.710;2023-03-14T11:29:08;3.22;;;1.67;;
45358;SDS011;31096;49.292;8.710;2023-03-14T11:39:16;3.23;;;1.50;;
45358;SDS011;31096;49.292;8.710;2023-03-14T11:44:19;4.43;;;1.80;;
45358;SDS011;31096;49.292;8.710;2023-03-14T11:59:51;3.10;;;1.40;;
45358;SDS011;31096;49.292;8.710;2023-03-14T12:10:16;3.43;;;1.53;;
45358;SDS011;31096;49.292;8.710;2023-03-14T12:15:15;3.33;;;1.90;;
45358;SDS011;31096;49.292;8.710;2023-03-14T12:20:23;3.20;;;1.70;;
45358;SDS011;31096;49.292;8.710;2023-03-14T12:25:17;4.00;;;1.63;;
45358;SDS011;31096;49.292;8.710;2023-03-14T12:35:34;3.80;;;1.95;;
45358;SDS011;31096;49.292;8.710;2023-03-14T12:40:31;3.70;;;1.57;;
45358;SDS011;31096;49.292;8.710;2023-03-14T12:45:26;4.45;;;1.50;;
45358;SDS011;31096;49.292;8.710;2023-03-14T12:50:42;3.33;;;1.70;;
45358;SDS011;31096;49.292;8.710;2023-03-14T12:55:36;3.97;;;1.90;;
45358;SDS011;31096;49.292;8.710;2023-03-14T13:00:35;3.80;;;1.80;;
45358;SDS011;31096;49.292;8.710;2023-03-14T13:05:30;4.00;;;2.40;;
45358;SDS011;31096;49.292;8.710;2023-03-14T13:10:28;3.92;;;2.38;;
45358;SDS011;31096;49.292;8.710;2023-03-14T13:15:34;4.80;;;2.13;;
45358;SDS011;31096;49.292;8.710;2023-03-14T13:20:34;5.67;;;2.60;;
45358;SDS011;31096;49.292;8.710;2023-03-14T13:25:34;4.88;;;2.42;;
45358;SDS011;31096;49.292;8.710;2023-03-14T13:30:27;4.30;;;2.15;;
45358;SDS011;31096;49.292;8.710;2023-03-14T13:35:26;4.17;;;2.20;;
45358;SDS011;31096;49.292;8.710;2023-03-14T13:40:23;3.88;;;1.92;;
45358;SDS011;31096;49.292;8.710;2023-03-14T13:45:20;4.90;;;1.90;;
45358;SDS011;31096;49.292;8.710;2023-03-14T13:50:17;3.47;;;2.00;;
45358;SDS011;31096;49.292;8.710;2023-03-14T13:55:16;4.30;;;2.00;;
45358;SDS011;31096;49.292;8.710;2023-03-14T14:00:16;4.20;;;2.33;;
45358;SDS011;31096;49.292;8.710;2023-03-14T14:05:10;3.85;;;1.73;;
45358;SDS011;31096;49.292;8.710;2023-03-14T14:10:01;3.58;;;1.92;;
45358;SDS011;31096;49.292;8.710;2023-03-14T14:14:57;3.97;;;1.70;;
45358;SDS011;31096;49.292;8.710;2023-03-14T14:20:06;3.95;;;2.05;;
45358;SDS011;31096;49.292;8.710;2023-03-14T14:25:03;3.90;;;1.70;;
45358;SDS011;31096;49.292;8.710;2023-03-14T14:30:36;4.70;;;1.97;;
45358;SDS011;31096;49.292;8.710;2023-03-14T14:35:09;4.40;;;1.65;;
45358;SDS011;31096;49.292;8.710;2023-03-14T14:40:20;5.03;;;1.80;;
45358;SDS011;31096;49.292;8.710;2023-03-14T14:45:24;3.73;;;1.67;;
45358;SDS011;31096;49.292;8.710;2023-03-14T14:55:30;3.40;;;1.60;;
45358;SDS011;31096;49.292;8.710;2023-03-14T15:00:25;4.87;;;2.10;;
45358;SDS011;31096;49.292;8.710;2023-03-14T15:05:19;4.40;;;1.92;;
45358;SDS011;31096;49.292;8.710;2023-03-14T15:10:16;5.10;;;2.00;;
45358;SDS011;31096;49.292;8.710;2023-03-14T15:15:10;4.00;;;1.80;;
45358;SDS011;31096;49.292;8.710;2023-03-14T15:20:05;5.50;;;1.90;;
45358;SDS011;31096;49.292;8.710;2023-03-14T15:25:03;3.90;;;1.83;;
45358;SDS011;31096;49.292;8.710;2023-03-14T15:29:54;4.10;;;1.70;;
45358;SDS011;31096;49.292;8.710;2023-03-14T15:34:45;3.47;;;1.80;;
45358;SDS011;31096;49.292;8.710;2023-03-14T15:39:36;5.40;;;2.10;;
45358;SDS011;31096;49.292;8.710;2023-03-14T15:44:26;4.82;;;1.85;;
45358;SDS011;31096;49.292;8.710;2023-03-14T15:49:17;4.87;;;2.00;;
45358;SDS011;31096;49.292;8.710;2023-03-14T15:54:08;4.90;;;1.63;;
45358;SDS011;31096;49.292;8.710;2023-03-14T15:59:01;4.95;;;1.90;;
45358;SDS011;31096;49.292;8.710;2023-03-14T16:03:52;4.13;;;2.00;;
45358;SDS011;31096;49.292;8.710;2023-03-14T16:08:43;5.43;;;1.80;;
45358;SDS011;31096;49.292;8.710;2023-03-14T16:13:35;5.38;;;1.83;;
45358;SDS011;31096;49.292;8.710;2023-03-14T16:18:30;3.33;;;1.47;;
45358;SDS011;31096;49.292;8.710;2023-03-14T16:23:23;5.68;;;1.90;;
45358;SDS011;31096;49.292;8.710;2023-03-14T16:28:15;5.40;;;1.90;;
45358;SDS011;31096;49.292;8.710;2023-03-14T16:33:05;5.72;;;1.98;;
45358;SDS011;31096;49.292;8.710;2023-03-14T16:37:59;4.57;;;2.13;;
45358;SDS011;31096;49.292;8.710;2023-03-14T16:42:50;7.13;;;1.97;;
45358;SDS011;31096;49.292;8.710;2023-03-14T16:47:42;5.90;;;2.03;;
45358;SDS011;31096;49.292;8.710;2023-03-14T16:52:33;5.37;;;2.63;;
45358;SDS011;31096;49.292;8.710;2023-03-14T16:57:24;5.82;;;2.13;;
45358;SDS011;31096;49.292;8.710;2023-03-14T17:02:14;6.93;;;2.60;;
45358;SDS011;31096;49.292;8.710;2023-03-14T17:07:05;6.87;;;1.97;;
45358;SDS011;31096;49.292;8.710;2023-03-14T17:11:57;4.07;;;1.67;;
45358;SDS011;31096;49.292;8.710;2023-03-14T17:16:48;4.97;;;1.70;;
45358;SDS011;31096;49.292;8.710;2023-03-14T17:21:41;4.45;;;2.00;;
45358;SDS011;31096;49.292;8.710;2023-03-14T17:26:32;8.67;;;2.67;;
45358;SDS011;31096;49.292;8.710;2023-03-14T17:31:23;5.53;;;2.20;;
45358;SDS011;31096;49.292;8.710;2023-03-14T17:36:14;4.47;;;1.80;;
45358;SDS011;31096;49.292;8.710;2023-03-14T17:41:10;6.15;;;1.60;;
45358;SDS011;31096;49.292;8.710;2023-03-14T17:46:03;5.53;;;2.25;;
45358;SDS011;31096;49.292;8.710;2023-03-14T17:51:07;4.80;;;1.93;;
45358;SDS011;31096;49.292;8.710;2023-03-14T17:55:58;6.18;;;1.90;;
45358;SDS011;31096;49.292;8.710;2023-03-14T18:00:48;6.93;;;2.10;;
45358;SDS011;31096;49.292;8.710;2023-03-14T18:05:40;6.10;;;2.70;;
45358;SDS011;31096;49.292;8.710;2023-03-14T18:10:34;5.10;;;1.87;;
45358;SDS011;31096;49.292;8.710;2023-03-14T18:15:25;8.45;;;2.42;;
45358;SDS011;31096;49.292;8.710;2023-03-14T18:20:16;5.47;;;2.42;;
45358;SDS011;31096;49.292;8.710;2023-03-14T18:25:08;7.03;;;2.38;;
45358;SDS011;31096;49.292;8.710;2023-03-14T18:30:00;5.40;;;2.25;;
45358;SDS011;31096;49.292;8.710;2023-03-14T18:34:51;6.83;;;2.70;;
45358;SDS011;31096;49.292;8.710;2023-03-14T18:39:41;5.38;;;2.17;;
45358;SDS011;31096;49.292;8.710;2023-03-14T18:44:32;5.23;;;1.90;;
45358;SDS011;31096;49.292;8.710;2023-03-14T18:49:25;4.73;;;2.60;;
45358;SDS011;31096;49.292;8.710;2023-03-14T18:54:16;5.85;;;2.33;;
45358;SDS011;31096;49.292;8.710;2023-03-14T18:59:07;3.77;;;1.90;;
45358;SDS011;31096;49.292;8.710;2023-03-14T19:03:59;4.50;;;2.00;;
45358;SDS011;31096;49.292;8.710;2023-03-14T19:08:52;5.32;;;2.10;;
45358;SDS011;31096;49.292;8.710;2023-03-14T19:13:43;3.87;;;1.53;;
45358;SDS011;31096;49.292;8.710;2023-03-14T19:18:34;5.95;;;1.90;;
45358;SDS011;31096;49.292;8.710;2023-03-14T19:23:25;4.63;;;2.00;;
45358;SDS011;31096;49.292;8.710;2023-03-14T19:28:16;3.30;;;1.65;;
45358;SDS011;31096;49.292;8.710;2023-03-14T19:33:11;5.57;;;1.67;;
45358;SDS011;31096;49.292;8.710;2023-03-14T19:38:03;4.20;;;2.13;;
45358;SDS011;31096;49.292;8.710;2023-03-14T19:42:54;5.33;;;2.00;;
45358;SDS011;31096;49.292;8.710;2023-03-14T19:47:51;5.20;;;2.38;;
45358;SDS011;31096;49.292;8.710;2023-03-14T19:52:42;4.27;;;2.33;;
45358;SDS011;31096;49.292;8.710;2023-03-14T19:57:34;4.78;;;2.03;;
45358;SDS011;31096;49.292;8.710;2023-03-14T20:02:25;5.43;;;2.40;;
45358;SDS011;31096;49.292;8.710;2023-03-14T20:07:16;7.57;;;2.67;;
45358;SDS011;31096;49.292;8.710;2023-03-14T20:12:07;5.33;;;2.37;;
45358;SDS011;31096;49.292;8.710;2023-03-14T20:16:59;5.85;;;2.40;;
45358;SDS011;31096;49.292;8.710;2023-03-14T20:21:51;5.10;;;2.73;;
45358;SDS011;31096;49.292;8.710;2023-03-14T20:26:41;5.70;;;2.35;;
45358;SDS011;31096;49.292;8.710;2023-03-14T20:31:32;4.65;;;2.10;;
45358;SDS011;31096;49.292;8.710;2023-03-14T20:36:27;4.45;;;2.47;;
45358;SDS011;31096;49.292;8.710;2023-03-14T20:41:18;4.97;;;2.50;;
45358;SDS011;31096;49.292;8.710;2023-03-14T20:46:09;4.57;;;2.10;;
45358;SDS011;31096;49.292;8.710;2023-03-14T20:51:04;9.57;;;2.88;;
45358;SDS011;31096;49.292;8.710;2023-03-14T20:55:56;7.43;;;3.00;;
45358;SDS011;31096;49.292;8.710;2023-03-14T21:00:47;9.95;;;3.70;;
45358;SDS011;31096;49.292;8.710;2023-03-14T21:05:40;8.25;;;3.55;;
45358;SDS011;31096;49.292;8.710;2023-03-14T21:10:36;7.30;;;4.18;;
45358;SDS011;31096;49.292;8.710;2023-03-14T21:15:29;7.05;;;4.00;;
45358;SDS011;31096;49.292;8.710;2023-03-14T21:20:20;7.83;;;3.40;;
45358;SDS011;31096;49.292;8.710;2023-03-14T21:25:11;9.07;;;3.72;;
45358;SDS011;31096;49.292;8.710;2023-03-14T21:30:02;6.20;;;3.40;;
45358;SDS011;31096;49.292;8.710;2023-03-14T21:34:53;8.13;;;3.38;;
45358;SDS011;31096;49.292;8.710;2023-03-14T21:39:44;7.57;;;3.20;;
45358;SDS011;31096;49.292;8.710;2023-03-14T21:44:35;6.60;;;3.20;;
45358;SDS011;31096;49.292;8.710;2023-03-14T21:49:26;6.95;;;3.55;;
45358;SDS011;31096;49.292;8.710;2023-03-14T21:54:18;15.20;;;4.88;;
45358;SDS011;31096;49.292;8.710;2023-03-14T21:59:10;9.53;;;3.90;;
45358;SDS011;31096;49.292;8.710;2023-03-14T22:04:01;7.95;;;4.53;;
45358;SDS011;31096;49.292;8.710;2023-03-14T22:08:52;7.13;;;3.47;;
45358;SDS011;31096;49.292;8.710;2023-03-14T22:13:44;9.68;;;3.72;;
45358;SDS011;31096;49.292;8.710;2023-03-14T22:18:34;8.80;;;3.90;;
45358;SDS011;31096;49.292;8.710;2023-03-14T22:23:25;10.33;;;4.73;;
45358;SDS011;31096;49.292;8.710;2023-03-14T22:28:16;9.18;;;4.63;;
45358;SDS011;31096;49.292;8.710;2023-03-14T22:33:08;9.73;;;4.00;;
45358;SDS011;31096;49.292;8.710;2023-03-14T22:37:58;6.43;;;3.30;;
45358;SDS011;31096;49.292;8.710;2023-03-14T22:42:52;8.10;;;3.27;;
45358;SDS011;31096;49.292;8.710;2023-03-14T22:47:43;8.43;;;3.53;;
45358;SDS011;31096;49.292;8.710;2023-03-14T22:52:34;6.97;;;3.83;;
45358;SDS011;31096;49.292;8.710;2023-03-14T22:57:24;8.27;;;3.80;;
45358;SDS011;31096;49.292;8.710;2023-03-14T23:02:15;8.13;;;3.10;;
45358;SDS011;31096;49.292;8.710;2023-03-14T23:07:06;9.10;;;3.67;;
45358;SDS011;31096;49.292;8.710;2023-03-14T23:11:57;7.10;;;3.57;;
45358;SDS011;31096;49.292;8.710;2023-03-14T23:16:49;7.97;;;3.80;;
45358;SDS011;31096;49.292;8.710;2023-03-14T23:21:40;8.27;;;4.17;;
45358;SDS011;31096;49.292;8.710;2023-03-14T23:26:31;9.02;;;3.90;;
45358;SDS011;31096;49.292;8.710;2023-03-14T23:31:24;8.75;;;3.50;;
45358;SDS011;31096;49.292;8.710;2023-03-14T23:36:15;6.00;;;3.20;;
45358;SDS011;31096;49.292;8.710;2023-03-14T23:41:07;11.63;;;3.65;;
45358;SDS011;31096;49.292;8.710;2023-03-14T23:45:59;6.90;;;3.73;;
45358;SDS011;31096;49.292;8.710;2023-03-14T23:50:59;8.70;;;3.20;;
45358;SDS011;31096;49.292;8.710;2023-03-14T23:55:54;7.93;;;3.43;;
